Terminal Aerodrome Forecast
Issued by NWS

Home | Current Version | Previous Version | Text Only | Print | Product List | Glossary On
Versions: 1 2 3 4 5 6 7 8 9 10 11 12 13 14 15 16 17 18 19 20 21
000
FTUS46 KSEW 282300
TAFHQM
TAF
KHQM 282320Z 2900/2924 25012KT P6SM SCT008
      TEMPO 2900/2903 5SM BR BKN008
     FM290300 25010KT 5SM BR OVC007
     FM291000 VRB03KT 3SM BR OVC003
     FM292000 25010KT P6SM SCT010=

USA.gov is the U.S. government's official web portal to all federal, state and local government web resources and services.